X  Schließen METAR Luftfahrt Wetterdaten     EDVE Braunschweig-Wolfsburg Airport
Temperatur
6°C Temperatur
5°C Taupunkt
93% Feuchtigkeit



Wind
13 KM/S
8 MPS
4 M/S
7 KTS



290°
WNW
Aktuelle Wetterlage

Meistens bewölkt Meistens bewölkt
Luftdruck 1029.92 (hPa) - 30.41 (inHg)
Sichtweite 6.2 (Meile) - 10 (Km)
Flughafen
Flughafen Code EDVE

Position : Braunschweig-Wolfsburg Airport
Entfernung: 35 (Km)

Metar:
EDVE 221620Z 29007KT 9999 BKN008 BKN012 OVC038 06/05 Q1030

Zeit: 22-01-2022 17:20 CET